createdAt,value
2018-11-21T00:01:35.846Z,1.98
2018-11-21T00:04:06.528Z,1.98
2018-11-21T00:06:34.958Z,2.02
2018-11-21T00:09:06.136Z,2.02
2018-11-21T00:11:37.362Z,2.01
2018-11-21T00:14:08.914Z,1.92
2018-11-21T00:16:37.672Z,1.93
2018-11-21T00:19:09.226Z,1.99
2018-11-21T00:21:40.765Z,1.93
2018-11-21T00:24:09.261Z,1.98
2018-11-21T00:26:37.758Z,1.92
2018-11-21T00:29:09.118Z,1.85
2018-11-21T00:31:37.559Z,1.86
2018-11-21T00:34:09.029Z,1.85
2018-11-21T00:36:37.462Z,1.74
2018-11-21T00:39:09.823Z,1.77
2018-11-21T00:41:38.245Z,1.85
2018-11-21T00:44:09.720Z,1.81
2018-11-21T00:46:41.289Z,1.83
2018-11-21T00:49:09.693Z,1.80
2018-11-21T00:51:41.187Z,1.81
2018-11-21T00:54:09.929Z,1.80
2018-11-21T00:56:38.339Z,1.80
2018-11-21T00:59:06.818Z,1.85
2018-11-21T01:01:35.219Z,1.82
2018-11-21T01:04:03.732Z,1.75
2018-11-21T01:06:32.140Z,1.77
2018-11-21T01:09:03.505Z,1.69
2018-11-21T01:11:34.717Z,1.74
2018-11-21T01:14:03.231Z,1.79
2018-11-21T01:16:31.625Z,1.82
2018-11-21T01:19:00.791Z,1.80
2018-11-21T01:21:29.360Z,1.87
2018-11-21T01:24:00.677Z,1.81
2018-11-21T01:26:32.080Z,1.79
2018-11-21T01:29:03.614Z,1.85
2018-11-21T01:31:32.017Z,1.75
2018-11-21T01:34:00.784Z,1.70
2018-11-21T01:36:29.346Z,1.76
2018-11-21T01:39:01.011Z,1.70
2018-11-21T01:41:29.536Z,1.72
2018-11-21T01:44:00.717Z,1.74
2018-11-21T01:46:29.128Z,1.68
2018-11-21T01:48:57.648Z,1.64
2018-11-21T01:51:26.042Z,1.68
2018-11-21T01:53:54.477Z,1.59
2018-11-21T01:56:22.989Z,1.64
2018-11-21T01:58:51.384Z,1.58
2018-11-21T02:01:19.782Z,1.54
2018-11-21T02:03:48.240Z,1.49
2018-11-21T02:06:19.853Z,1.46
2018-11-21T02:08:48.548Z,1.40
2018-11-21T02:11:20.453Z,1.46
2018-11-21T02:13:48.873Z,1.42
2018-11-21T02:16:20.059Z,1.46
2018-11-21T02:18:48.475Z,1.43
2018-11-21T02:21:18.766Z,1.51
2018-11-21T02:23:47.539Z,1.52
2018-11-21T02:26:16.198Z,1.53
2018-11-21T02:28:49.241Z,1.45
2018-11-21T02:31:20.622Z,1.52
2018-11-21T02:33:51.841Z,1.55
2018-11-21T02:36:23.297Z,1.60
2018-11-21T02:38:54.868Z,1.56
2018-11-21T02:41:23.276Z,1.50
2018-11-21T02:43:54.742Z,1.53
2018-11-21T02:46:26.388Z,1.57
2018-11-21T02:48:57.558Z,1.41
2018-11-21T02:51:28.975Z,1.51
2018-11-21T02:54:00.620Z,1.42
2018-11-21T02:57:22.714Z,1.45
2018-11-21T03:00:31.550Z,1.51
2018-11-21T03:03:02.801Z,1.50
2018-11-21T03:05:31.219Z,1.43
2018-11-21T03:08:00.658Z,1.39
2018-11-21T03:10:29.177Z,1.34
2018-11-21T03:12:57.889Z,1.39
2018-11-21T03:15:26.300Z,1.30
2018-11-21T03:17:54.724Z,1.23
2018-11-21T03:20:23.136Z,1.26
2018-11-21T03:22:51.792Z,1.25
2018-11-21T03:25:20.305Z,1.30
2018-11-21T03:27:48.708Z,1.31
2018-11-21T03:30:23.740Z,1.32
2018-11-21T03:32:52.152Z,1.28
2018-11-21T03:35:20.561Z,1.28
2018-11-21T03:37:49.002Z,1.17
2018-11-21T03:40:19.377Z,1.25
2018-11-21T03:42:50.611Z,1.33
2018-11-21T03:45:20.971Z,1.34
2018-11-21T03:47:49.424Z,1.25
2018-11-21T03:50:20.710Z,1.33
2018-11-21T03:52:49.125Z,1.36
2018-11-21T03:55:19.807Z,1.31
2018-11-21T03:57:48.208Z,1.24
2018-11-21T04:00:19.413Z,1.22
2018-11-21T04:02:50.665Z,1.28
2018-11-21T04:05:22.332Z,1.28
2018-11-21T04:07:50.757Z,1.22
2018-11-21T04:10:19.158Z,1.15
2018-11-21T04:12:49.607Z,1.27
2018-11-21T04:15:18.064Z,1.17
2018-11-21T04:17:49.742Z,1.18
2018-11-21T04:20:18.256Z,1.15
2018-11-21T04:22:49.587Z,1.22
2018-11-21T04:25:20.791Z,1.16
2018-11-21T04:27:49.168Z,1.15
2018-11-21T04:30:20.116Z,1.21
2018-11-21T04:32:51.877Z,1.25
2018-11-21T04:35:20.284Z,1.29
2018-11-21T04:37:48.707Z,1.38
2018-11-21T04:40:17.460Z,1.41
2018-11-21T04:42:45.992Z,1.40
2018-11-21T04:45:14.396Z,1.31
2018-11-21T04:47:42.795Z,1.23
2018-11-21T04:50:11.230Z,1.22
2018-11-21T04:52:39.644Z,1.17
2018-11-21T04:55:11.058Z,1.16
2018-11-21T04:57:39.584Z,1.19
2018-11-21T05:00:11.395Z,1.23
2018-11-21T05:02:39.836Z,1.17
2018-11-21T05:05:09.735Z,1.25
2018-11-21T05:07:38.164Z,1.16
2018-11-21T05:10:09.601Z,1.08
2018-11-21T05:12:38.382Z,1.21
2018-11-21T05:15:07.037Z,1.22
2018-11-21T05:17:35.607Z,1.14
2018-11-21T05:20:04.077Z,1.25
2018-11-21T05:22:32.530Z,1.25
2018-11-21T05:25:01.061Z,1.31
2018-11-21T05:27:32.349Z,1.34
2018-11-21T05:30:00.760Z,1.32
2018-11-21T05:32:29.113Z,1.32
2018-11-21T05:34:57.527Z,1.36
2018-11-21T05:37:29.017Z,1.32
2018-11-21T05:39:57.711Z,1.40
2018-11-21T05:42:29.141Z,1.48
2018-11-21T05:44:57.591Z,1.37
2018-11-21T05:47:28.545Z,1.38
2018-11-21T05:49:57.108Z,1.45
2018-11-21T05:52:25.887Z,1.47
2018-11-21T05:54:54.427Z,1.40
2018-11-21T05:57:22.834Z,1.37
2018-11-21T05:59:51.246Z,1.39
2018-11-21T06:02:19.692Z,1.26
2018-11-21T06:04:48.203Z,1.24
2018-11-21T06:07:19.644Z,1.36
2018-11-21T06:09:48.240Z,1.31
2018-11-21T06:12:19.708Z,1.36
2018-11-21T06:14:53.762Z,1.39
2018-11-21T06:17:22.245Z,1.31
2018-11-21T06:19:53.743Z,1.19
2018-11-21T06:22:22.442Z,1.29
2018-11-21T06:24:50.840Z,1.37
2018-11-21T06:27:19.248Z,1.36
2018-11-21T06:29:50.299Z,1.36
2018-11-21T06:32:18.710Z,1.30
2018-11-21T06:34:50.004Z,1.30
2018-11-21T06:37:18.421Z,1.42
2018-11-21T06:39:49.643Z,1.30
2018-11-21T06:42:18.067Z,1.31
2018-11-21T06:44:49.338Z,1.45
2018-11-21T06:47:20.689Z,1.49
2018-11-21T06:49:49.148Z,1.41
2018-11-21T06:52:22.220Z,1.39
2018-11-21T06:54:51.272Z,1.48
2018-11-21T06:57:19.736Z,1.50
2018-11-21T06:59:48.296Z,1.40
2018-11-21T07:02:19.595Z,1.47
2018-11-21T07:04:48.057Z,1.57
2018-11-21T07:07:19.646Z,1.51
2018-11-21T07:09:48.083Z,1.45
2018-11-21T07:12:19.368Z,1.42
2018-11-21T07:14:50.877Z,1.40
2018-11-21T07:17:22.047Z,1.45
2018-11-21T07:19:50.453Z,1.48
2018-11-21T07:22:21.611Z,1.49
2018-11-21T07:24:50.147Z,1.56
2018-11-21T07:27:18.537Z,1.59
2018-11-21T07:29:47.277Z,1.59
2018-11-21T07:32:16.099Z,1.52
2018-11-21T07:34:49.811Z,1.55
2018-11-21T07:37:19.627Z,1.50
2018-11-21T07:39:48.159Z,1.53
2018-11-21T07:42:16.825Z,1.53
2018-11-21T07:44:47.639Z,1.50
2018-11-21T07:47:17.725Z,1.69
2018-11-21T07:49:49.684Z,1.68
2018-11-21T07:52:18.257Z,1.80
2018-11-21T07:54:49.636Z,1.84
2018-11-21T07:57:33.164Z,1.78
2018-11-21T08:00:56.323Z,1.78
2018-11-21T08:03:26.043Z,1.78
2018-11-21T08:05:57.942Z,1.71
2018-11-21T08:11:24.789Z,1.89
2018-11-21T08:14:17.758Z,1.83
2018-11-21T08:17:03.864Z,1.74
2018-11-21T08:19:45.938Z,1.84
2018-11-21T08:22:27.268Z,1.92
2018-11-21T08:25:10.654Z,2.00
2018-11-21T08:27:58.537Z,1.95
2018-11-21T08:30:26.935Z,1.88
2018-11-21T08:32:55.338Z,1.98
2018-11-21T08:35:24.047Z,1.95
2018-11-21T08:37:52.401Z,1.96
2018-11-21T08:40:21.168Z,1.84
2018-11-21T08:42:49.598Z,1.87
2018-11-21T08:45:20.946Z,1.88
2018-11-21T08:47:49.278Z,1.85
2018-11-21T08:50:17.758Z,1.93
2018-11-21T08:52:46.299Z,2.00
2018-11-21T08:55:14.994Z,2.09
2018-11-21T08:57:43.185Z,2.14
2018-11-21T09:00:13.070Z,2.21
2018-11-21T09:02:41.496Z,2.26
2018-11-21T09:05:13.045Z,2.17
2018-11-21T09:07:42.276Z,2.18
2018-11-21T09:10:14.370Z,2.20
2018-11-21T09:12:42.909Z,2.25
2018-11-21T09:15:13.574Z,2.12
2018-11-21T09:17:42.508Z,2.06
2018-11-21T09:20:11.409Z,2.20
2018-11-21T09:22:40.021Z,2.17
2018-11-21T09:25:12.256Z,2.12
2018-11-21T09:27:43.989Z,2.24
2018-11-21T09:30:17.572Z,2.07
2018-11-21T09:32:50.344Z,2.08
2018-11-21T09:35:21.572Z,1.89
2018-11-21T09:37:49.983Z,1.97
2018-11-21T09:40:19.903Z,1.92
2018-11-21T09:42:49.663Z,1.85
2018-11-21T09:45:22.083Z,1.77
2018-11-21T09:47:50.664Z,1.77
2018-11-21T09:50:24.203Z,1.90
2018-11-21T09:52:52.638Z,1.93
2018-11-21T09:55:21.060Z,1.85
2018-11-21T09:57:49.486Z,1.85
2018-11-21T10:00:54.364Z,1.80
2018-11-21T10:03:33.402Z,1.65
2018-11-21T10:06:10.275Z,1.59
2018-11-21T10:08:43.049Z,1.58
2018-11-21T10:11:15.866Z,1.61
2018-11-21T10:13:43.182Z,1.53
2018-11-21T10:16:11.583Z,1.61
2018-11-21T10:18:41.527Z,1.70
2018-11-21T10:21:11.746Z,1.63
2018-11-21T10:23:40.734Z,1.71
2018-11-21T10:26:09.589Z,1.64
2018-11-21T10:28:38.343Z,1.81
2018-11-21T10:31:06.768Z,1.77
2018-11-21T10:33:35.153Z,1.73
2018-11-21T10:36:03.924Z,1.70
2018-11-21T10:38:35.276Z,1.68
2018-11-21T10:41:06.812Z,1.76
2018-11-21T10:43:38.469Z,1.83
2018-11-21T10:46:10.011Z,1.76
2018-11-21T10:48:38.703Z,1.74
2018-11-21T10:51:07.149Z,1.81
2018-11-21T10:53:35.645Z,1.89
2018-11-21T10:56:04.077Z,1.83
2018-11-21T10:58:32.487Z,1.85
2018-11-21T11:01:18.704Z,1.87
2018-11-21T11:04:01.477Z,1.99
2018-11-21T11:06:55.038Z,2.03
2018-11-21T11:09:41.407Z,2.12
2018-11-21T11:12:47.103Z,2.14
2018-11-21T11:15:37.312Z,2.32
2018-11-21T11:18:30.545Z,2.47
2018-11-21T11:21:26.864Z,2.46
2018-11-21T11:24:13.069Z,2.56
2018-11-21T11:27:18.783Z,2.68
2018-11-21T11:30:08.463Z,2.64
2018-11-21T11:33:10.828Z,2.81
2018-11-21T11:35:53.454Z,2.86
2018-11-21T11:38:43.014Z,2.79
2018-11-21T11:41:32.303Z,2.56
2018-11-21T11:44:34.541Z,2.68
2018-11-21T11:47:34.005Z,2.60
2018-11-21T11:50:42.631Z,2.38
2018-11-21T11:53:30.156Z,2.31
2018-11-21T11:56:29.993Z,2.28
2018-11-21T11:59:18.448Z,2.36
2018-11-21T12:02:08.553Z,2.28
2018-11-21T12:04:55.414Z,2.31
2018-11-21T12:07:48.674Z,2.25
2018-11-21T12:10:41.376Z,2.22
2018-11-21T12:13:27.405Z,2.13
2018-11-21T12:16:16.652Z,2.24
2018-11-21T12:19:05.251Z,2.14
2018-11-21T12:22:01.849Z,2.31
2018-11-21T12:24:47.483Z,2.18
2018-11-21T12:27:40.024Z,2.22
2018-11-21T12:30:31.777Z,2.24
2018-11-21T12:33:31.165Z,2.07
2018-11-21T12:36:33.812Z,2.07
2018-11-21T12:39:20.431Z,2.22
2018-11-21T12:42:23.160Z,2.18
2018-11-21T12:45:09.389Z,2.20
2018-11-21T12:48:04.556Z,2.31
2018-11-21T12:50:51.480Z,2.26
2018-11-21T12:53:37.695Z,2.18
2018-11-21T12:56:28.048Z,2.13
2018-11-21T12:59:15.131Z,2.22
2018-11-21T13:02:14.378Z,2.22
2018-11-21T13:05:07.701Z,2.31
2018-11-21T13:07:53.892Z,2.44
2018-11-21T13:10:48.896Z,2.38
2018-11-21T13:13:57.544Z,2.26
2018-11-21T13:16:51.546Z,2.29
2018-11-21T13:19:40.813Z,2.15
2018-11-21T13:22:26.151Z,2.31
2018-11-21T13:25:16.720Z,2.38
2018-11-21T13:28:13.252Z,2.34
2018-11-21T13:31:03.680Z,2.31
2018-11-21T13:34:00.168Z,2.28
2018-11-21T13:37:06.174Z,2.35
2018-11-21T13:40:02.489Z,2.35
2018-11-21T13:42:49.977Z,2.40
2018-11-21T13:45:37.945Z,2.39
2018-11-21T13:48:24.299Z,2.28
2018-11-21T13:51:10.766Z,2.32
2018-11-21T13:54:10.663Z,2.36
2018-11-21T13:56:42.049Z,2.31
2018-11-21T13:59:10.452Z,2.26
2018-11-21T14:01:42.235Z,2.33
2018-11-21T14:04:13.489Z,2.25
2018-11-21T14:06:42.047Z,2.25
2018-11-21T14:09:18.826Z,2.17
2018-11-21T14:11:50.912Z,2.14
2018-11-21T14:14:22.361Z,2.08
2018-11-21T14:16:53.899Z,2.02
2018-11-21T14:19:25.357Z,2.14
2018-11-21T14:21:56.981Z,2.12
2018-11-21T14:24:28.748Z,2.20
2018-11-21T14:27:00.263Z,2.16
2018-11-21T14:29:31.871Z,2.16
2018-11-21T14:32:03.028Z,2.19
2018-11-21T14:34:34.292Z,2.18
2018-11-21T14:37:02.703Z,2.15
2018-11-21T14:39:31.198Z,2.06
2018-11-21T14:42:00.395Z,2.01
2018-11-21T14:44:28.865Z,1.95
2018-11-21T14:47:00.614Z,1.91
2018-11-21T14:49:32.094Z,1.89
2018-11-21T14:52:03.530Z,1.88
2018-11-21T14:54:34.774Z,1.97
2018-11-21T14:57:06.369Z,1.85
2018-11-21T14:59:37.609Z,1.87
2018-11-21T15:02:06.075Z,1.90
2018-11-21T15:04:34.553Z,1.86
2018-11-21T15:07:03.310Z,1.91
2018-11-21T15:09:31.701Z,1.84
2018-11-21T15:12:03.080Z,1.85
2018-11-21T15:14:34.674Z,1.84
2018-11-21T15:17:03.097Z,1.79
2018-11-21T15:19:31.494Z,1.81
2018-11-21T15:22:00.035Z,1.77
2018-11-21T15:24:28.439Z,1.76
2018-11-21T15:26:56.933Z,1.69
2018-11-21T15:29:25.476Z,1.60
2018-11-21T15:31:53.979Z,1.66
2018-11-21T15:34:22.485Z,1.76
2018-11-21T15:36:50.911Z,1.73
2018-11-21T15:39:19.633Z,1.75
2018-11-21T15:41:48.447Z,1.76
2018-11-21T15:44:19.533Z,1.69
2018-11-21T15:46:55.038Z,1.73
2018-11-21T15:49:26.533Z,1.81
2018-11-21T15:52:01.566Z,1.79
2018-11-21T15:54:29.398Z,1.76
2018-11-21T15:56:57.806Z,1.68
2018-11-21T15:59:26.276Z,1.69
2018-11-21T16:01:54.902Z,1.75
2018-11-21T16:04:23.335Z,1.68
2018-11-21T16:06:55.055Z,1.57
2018-11-21T16:09:27.203Z,1.59
2018-11-21T16:11:58.672Z,1.65
2018-11-21T16:14:27.071Z,1.56
2018-11-21T16:16:55.523Z,1.53
2018-11-21T16:19:23.932Z,1.60
2018-11-21T16:21:55.154Z,1.57
2018-11-21T16:24:23.682Z,1.48
2018-11-21T16:26:52.084Z,1.44
2018-11-21T16:29:20.429Z,1.48
2018-11-21T16:31:49.022Z,1.48
2018-11-21T16:34:20.310Z,1.57
2018-11-21T16:36:48.730Z,1.56
2018-11-21T16:39:17.558Z,1.62
2018-11-21T16:41:45.954Z,1.57
2018-11-21T16:44:14.506Z,1.60
2018-11-21T16:46:43.025Z,1.62
2018-11-21T16:49:11.536Z,1.58
2018-11-21T16:51:39.966Z,1.67
2018-11-21T16:54:11.196Z,1.57
2018-11-21T16:56:42.503Z,1.56
2018-11-21T16:59:10.900Z,1.58
2018-11-21T17:01:42.171Z,1.58
2018-11-21T17:04:10.602Z,1.60
2018-11-21T17:06:41.994Z,1.65
2018-11-21T17:09:12.043Z,1.61
2018-11-21T17:11:43.320Z,1.55
2018-11-21T17:14:12.011Z,1.64
2018-11-21T17:16:40.478Z,1.61
2018-11-21T17:19:08.892Z,1.61
2018-11-21T17:21:37.681Z,1.60
2018-11-21T17:24:07.051Z,1.48
2018-11-21T17:26:39.243Z,1.53
2018-11-21T17:29:08.799Z,1.48
2018-11-21T17:31:39.102Z,1.46
2018-11-21T17:34:07.529Z,1.47
2018-11-21T17:36:35.945Z,1.42
2018-11-21T17:39:10.421Z,1.33
2018-11-21T17:41:42.235Z,1.28
2018-11-21T17:44:14.189Z,1.31
2018-11-21T17:46:42.814Z,1.25
2018-11-21T17:49:11.260Z,1.33
2018-11-21T17:51:39.685Z,1.29
2018-11-21T17:54:11.734Z,1.32
2018-11-21T17:56:40.581Z,1.36
2018-11-21T17:59:08.936Z,1.26
2018-11-21T18:01:37.389Z,1.18
2018-11-21T18:04:05.960Z,1.20
2018-11-21T18:06:34.506Z,1.18
2018-11-21T18:09:09.431Z,1.12
2018-11-21T18:11:37.955Z,1.18
2018-11-21T18:14:06.753Z,1.21
2018-11-21T18:16:35.230Z,1.21
2018-11-21T18:19:06.670Z,1.10
2018-11-21T18:21:35.433Z,1.15
2018-11-21T18:24:03.872Z,1.20
2018-11-21T18:26:32.294Z,1.13
2018-11-21T18:29:01.079Z,1.11
2018-11-21T18:31:29.506Z,1.17
2018-11-21T18:33:58.061Z,1.19
2018-11-21T18:36:26.500Z,1.28
2018-11-21T18:38:57.905Z,1.16
2018-11-21T18:41:29.468Z,1.24
2018-11-21T18:43:58.289Z,1.21
2018-11-21T18:46:29.790Z,1.13
2018-11-21T18:48:58.713Z,1.12
2018-11-21T18:51:30.081Z,1.11
2018-11-21T18:54:02.739Z,1.16
2018-11-21T18:57:01.285Z,1.25
2018-11-21T18:59:43.734Z,1.26
2018-11-21T19:02:12.249Z,1.17
2018-11-21T19:04:40.681Z,1.23
2018-11-21T19:07:11.953Z,1.30
2018-11-21T19:09:40.393Z,1.29
2018-11-21T19:12:08.849Z,1.15
2018-11-21T19:14:37.663Z,1.27
2018-11-21T19:17:09.010Z,1.16
2018-11-21T19:19:37.459Z,1.18
2018-11-21T19:22:08.885Z,1.20
2018-11-21T19:24:38.644Z,1.19
2018-11-21T19:27:07.120Z,1.13
2018-11-21T19:29:39.013Z,1.20
2018-11-21T19:32:07.743Z,1.17
2018-11-21T19:34:39.167Z,1.32
2018-11-21T19:37:11.504Z,1.25
2018-11-21T19:39:40.449Z,1.36
2018-11-21T19:42:08.981Z,1.25
2018-11-21T19:44:37.406Z,1.27
2018-11-21T19:47:05.926Z,1.25
2018-11-21T19:49:34.337Z,1.29
2018-11-21T19:52:02.906Z,1.22
2018-11-21T19:54:31.341Z,1.22
2018-11-21T19:56:59.854Z,1.26
2018-11-21T19:59:28.302Z,1.23
2018-11-21T20:01:56.710Z,1.22
2018-11-21T20:04:27.933Z,1.27
2018-11-21T20:06:56.352Z,1.18
2018-11-21T20:09:24.779Z,1.21
2018-11-21T20:11:57.189Z,1.36
2018-11-21T20:14:28.748Z,1.35
2018-11-21T20:16:57.565Z,1.34
2018-11-21T20:19:29.142Z,1.34
2018-11-21T20:22:00.616Z,1.27
2018-11-21T20:24:32.137Z,1.34
2018-11-21T20:27:04.005Z,1.48
2018-11-21T20:29:32.859Z,1.42
2018-11-21T20:32:01.497Z,1.43
2018-11-21T20:34:29.906Z,1.37
2018-11-21T20:37:18.124Z,1.37
2018-11-21T20:39:49.357Z,1.42
2018-11-21T20:42:18.140Z,1.43
2018-11-21T20:44:49.434Z,1.43
2018-11-21T20:47:24.367Z,1.39
2018-11-21T20:49:52.820Z,1.47
2018-11-21T20:52:21.226Z,1.37
2018-11-21T20:54:49.778Z,1.46
2018-11-21T20:57:18.235Z,1.46
2018-11-21T20:59:52.679Z,1.49
2018-11-21T21:02:23.865Z,1.40
2018-11-21T21:04:53.396Z,1.39
2018-11-21T21:07:22.535Z,1.34
2018-11-21T21:09:50.293Z,1.34
2018-11-21T21:12:22.006Z,1.31
2018-11-21T21:14:50.782Z,1.27
2018-11-21T21:17:19.241Z,1.34
2018-11-21T21:19:50.410Z,1.33
2018-11-21T21:22:21.704Z,1.33
2018-11-21T21:24:53.354Z,1.31
2018-11-21T21:27:21.826Z,1.34
2018-11-21T21:29:53.406Z,1.41
2018-11-21T21:32:21.814Z,1.34
2018-11-21T21:34:50.289Z,1.42
2018-11-21T21:37:18.898Z,1.39
2018-11-21T21:39:51.830Z,1.44
2018-11-21T21:42:20.260Z,1.42
2018-11-21T21:44:48.777Z,1.46
2018-11-21T21:47:20.192Z,1.42
2018-11-21T21:49:48.617Z,1.34
2018-11-21T21:52:19.990Z,1.36
2018-11-21T21:54:51.502Z,1.31
2018-11-21T21:57:19.945Z,1.32
2018-11-21T21:59:48.377Z,1.26
2018-11-21T22:02:20.273Z,1.28
2018-11-21T22:04:48.896Z,1.25
2018-11-21T22:07:23.157Z,1.26
2018-11-21T22:09:52.207Z,1.31
2018-11-21T22:12:20.744Z,1.23
2018-11-21T22:14:49.426Z,1.30
2018-11-21T22:17:20.788Z,1.36
2018-11-21T22:19:49.253Z,1.29
2018-11-21T22:22:18.344Z,1.31
2018-11-21T22:24:49.468Z,1.25
2018-11-21T22:27:21.729Z,1.26
2018-11-21T22:29:50.180Z,1.32
2018-11-21T22:32:19.054Z,1.34
2018-11-21T22:34:50.626Z,1.28
2018-11-21T22:37:19.054Z,1.41
2018-11-21T22:39:50.032Z,1.31
2018-11-21T22:42:18.709Z,1.21
2018-11-21T22:44:50.563Z,1.27
2018-11-21T22:47:19.091Z,1.44
2018-11-21T22:49:51.058Z,1.43
2018-11-21T22:52:22.434Z,1.42
2018-11-21T22:54:50.844Z,1.34
2018-11-21T22:57:19.272Z,1.38
2018-11-21T22:59:50.877Z,1.50
2018-11-21T23:02:22.341Z,1.37
2018-11-21T23:04:50.879Z,1.49
2018-11-21T23:07:23.170Z,1.33
2018-11-21T23:09:54.388Z,1.33
2018-11-21T23:12:25.971Z,1.39
2018-11-21T23:14:54.454Z,1.31
2018-11-21T23:17:25.796Z,1.47
2018-11-21T23:19:57.519Z,1.47
2018-11-21T23:22:32.554Z,1.42
2018-11-21T23:24:57.339Z,1.43
2018-11-21T23:27:29.340Z,1.53
2018-11-21T23:30:00.857Z,1.42
2018-11-21T23:32:29.272Z,1.50
2018-11-21T23:34:57.688Z,1.52
2018-11-21T23:37:26.099Z,1.45
2018-11-21T23:39:57.242Z,1.43
2018-11-21T23:42:25.659Z,1.49
2018-11-21T23:44:54.106Z,1.60
2018-11-21T23:47:22.553Z,1.45
2018-11-21T23:49:50.987Z,1.41
2018-11-21T23:52:22.533Z,1.41
2018-11-21T23:54:50.936Z,1.40
2018-11-21T23:57:24.938Z,1.50
2018-11-21T23:59:50.679Z,1.51
